This is the latest recevied weather packets stored in our database for station/object AE5TC. If no packets are shown the sender has not sent any weather packets the latest 10 day(s).
| Time | Temp. | Humidity | Pressure | Rain* | Wind** | Luminosity | Snow |
|---|---|---|---|---|---|---|---|
| 1777574850 | 27.78° C | 74% | 1010.3 hPa | 0 mm | - | 275 W/m² | - |
| 1777574548 | 27.22° C | 75% | 1010.5 hPa | 0 mm | - | 291 W/m² | - |
| 1777574244 | 27.78° C | 75% | 1010.5 hPa | 0 mm | - | 293 W/m² | - |
| 1777573939 | 27.78° C | 74% | 1010.6 hPa | 0 mm | - | 304 W/m² | - |
| 1777573635 | 27.78° C | 75% | 1010.7 hPa | 0 mm | - | 301 W/m² | - |
| 1777573331 | 27.22° C | 75% | 1010.6 hPa | 0 mm | - | 370 W/m² | - |
| 1777573027 | 27.22° C | 75% | 1010.7 hPa | 0 mm | - | 255 W/m² | - |
| 1777572723 | 27.78° C | 73% | 1010.7 hPa | 0 mm | - | 202 W/m² | - |
| 1777572418 | 28.33° C | 73% | 1010.7 hPa | 0 mm | - | 278 W/m² | - |
| 1777572114 | 28.33° C | 71% | 1010.7 hPa | 0 mm | - | 338 W/m² | - |
| 1777571808 | 28.89° C | 70% | 1010.6 hPa | 0 mm | - | 330 W/m² | - |
| 1777571505 | 28.89° C | 68% | 1010.9 hPa | 0 mm | - | 439 W/m² | - |
| 1777571202 | 27.78° C | 71% | 1010.8 hPa | 0 mm | - | 481 W/m² | - |
| 1777570892 | 27.78° C | 71% | 1010.7 hPa | 0 mm | - | 245 W/m² | - |
| 1777570588 | 28.89° C | 68% | 1010.8 hPa | 0 mm | - | 227 W/m² | - |
| 1777570286 | 29.44° C | 66% | 1010.9 hPa | 0 mm | - | 299 W/m² | - |
| 1777569981 | 29.44° C | 65% | 1010.9 hPa | 0 mm | - | 761 W/m² | - |
| 1777569677 | 30° C | 64% | 1010.8 hPa | 0 mm | - | 520 W/m² | - |
| 1777569373 | 28.89° C | 66% | 1011 hPa | 0 mm | - | 676 W/m² | - |
| 1777569070 | 28.89° C | 67% | 1011 hPa | 0 mm | - | 555 W/m² | - |
| 1777568766 | 30.56° C | 66% | 1011.2 hPa | 0 mm | - | 696 W/m² | - |
| 1777568464 | 30° C | 65% | 1011.5 hPa | 0 mm | - | 772 W/m² | - |
| 1777568160 | 30° C | 65% | 1011.5 hPa | 0 mm | - | 789 W/m² | - |
| 1777567857 | 30° C | 67% | 1011.3 hPa | 0 mm | - | 810 W/m² | - |
| 1777567553 | 28.89° C | 66% | 1011.7 hPa | 0 mm | - | 819 W/m² | - |
* Rain latest hour (hover to see other rain measurements)
** Current wind speed in m/s (hover to see current wind gust speed)